Garden City, Texas
Current Conditions -  °F | °C
As of 4:35 AM on Friday 19 Dec 2014 (Local Time) from KBPG Reporting Station
Overcast Overcast  
Wind Chill: 35°   Ceiling: 800
Heat Index: 41°   Visibility: 10mi
Dew Point: 36°   Wind: 10mph
Humidity: 82%   Direction: 50°NE
Pressure: 30.14"   Gusts: NA
Location:  31.86°N, 101.48°W
Report Text: KBPG 191035Z AUTO 05009KT 10SM OVC008 05/02 A3014 RMK AO2 T00500021
Loading
Personal Weather Stations






























Interactive Weather Map New forecast layout! Learn more

10-Day Weather Forecast

Advertisements
Track Severe Weather on mobile